Time;durP1;ratioP1;P1;durP2;ratioP2;P2;SDS_P1;SDS_P2;PMS_P1;PMS_P2;Temp;Humidity;BMP_temperature;BMP_pressure;BME280_temperature;BME280_humidity;BME280_pressure;Samples;Min_cycle;Max_cycle;Signal;HPM_P1;HPM_P2
2023/08/15 00:00:38;;;;;;;12.60;5.40;;;;;;;20.49;100.00;101646.69;2520561;23;20155;-68
2023/08/15 00:01:38;;;;;;;8.60;5.10;;;;;;;20.91;100.00;101719.88;2520751;23;20566;-68
2023/08/15 00:02:39;;;;;;;7.20;5.40;;;;;;;20.90;100.00;101716.31;2521026;23;20162;-68
2023/08/15 00:03:39;;;;;;;6.07;4.70;;;;;;;20.05;100.00;101585.69;2521064;23;20155;-68
2023/08/15 00:04:40;;;;;;;7.17;5.37;;;;;;;20.88;100.00;101715.97;2521165;23;20302;-68
2023/08/15 00:05:40;;;;;;;5.70;4.93;;;;;;;20.90;100.00;101712.69;2520814;23;20555;-68
2023/08/15 00:06:40;;;;;;;7.00;5.27;;;;;;;20.77;100.00;101712.88;2519971;23;20162;-68
2023/08/15 00:07:41;;;;;;;8.93;5.33;;;;;;;20.86;100.00;101710.03;2519494;23;20198;-68
2023/08/15 00:08:41;;;;;;;8.17;5.30;;;;;;;20.85;100.00;101710.50;2521009;23;20505;-68
2023/08/15 00:09:42;;;;;;;6.43;5.20;;;;;;;20.83;100.00;101710.97;2520844;23;20159;-68
2023/08/15 00:10:42;;;;;;;7.70;5.03;;;;;;;20.82;100.00;101709.41;2520744;23;20269;-67
2023/08/15 00:11:42;;;;;;;9.93;5.00;;;;;;;20.78;100.00;101717.25;2520559;23;20158;-67
2023/08/15 00:12:43;;;;;;;8.20;5.30;;;;;;;20.72;100.00;101716.34;2520830;23;20504;-68
2023/08/15 00:13:43;;;;;;;6.70;5.03;;;;;;;20.72;100.00;101721.97;2520939;23;20238;-68
2023/08/15 00:14:44;;;;;;;7.37;5.17;;;;;;;20.57;100.00;101721.09;2520833;23;20187;-67
2023/08/15 00:15:44;;;;;;;5.80;5.07;;;;;;;20.39;100.00;101695.84;2520434;23;20155;-68
2023/08/15 00:16:44;;;;;;;7.53;5.83;;;;;;;20.39;100.00;101689.41;2520676;23;20178;-68
2023/08/15 00:17:45;;;;;;;8.37;5.43;;;;;;;20.58;100.00;101717.03;2519995;23;20151;-67
2023/08/15 00:18:45;;;;;;;14.53;8.33;;;;;;;20.57;100.00;101707.03;2520828;23;20194;-68
2023/08/15 00:19:46;;;;;;;13.77;9.20;;;;;;;20.55;100.00;101705.94;2520443;23;20241;-68
2023/08/15 00:20:48;;;;;;;13.50;8.77;;;;;;;20.57;100.00;101711.88;2520447;23;20166;-68
2023/08/15 00:21:48;;;;;;;14.97;11.87;;;;;;;20.56;100.00;101718.75;2520051;23;20624;-68
2023/08/15 00:22:48;;;;;;;16.73;8.77;;;;;;;20.00;100.00;101631.34;2520557;23;20813;-67
2023/08/15 00:23:49;;;;;;;14.23;8.33;;;;;;;20.57;100.00;101709.84;2508269;23;20176;-68
2023/08/15 00:24:49;;;;;;;15.47;9.13;;;;;;;19.62;100.00;101564.41;2508296;23;20156;-68
2023/08/15 00:25:50;;;;;;;22.33;12.27;;;;;;;20.25;100.00;101661.94;2520505;23;20158;-67
2023/08/15 00:26:50;;;;;;;13.37;8.57;;;;;;;19.73;100.00;101572.31;2520484;23;20602;-68
2023/08/15 00:27:50;;;;;;;12.30;8.00;;;;;;;20.23;100.00;101648.34;2520470;23;20234;-68
2023/08/15 00:28:51;;;;;;;15.33;9.10;;;;;;;20.60;100.00;101710.91;2520910;23;20677;-68
2023/08/15 00:29:51;;;;;;;14.23;9.60;;;;;;;20.44;100.00;101686.75;2520512;23;20186;-68
2023/08/15 00:30:52;;;;;;;14.90;9.00;;;;;;;20.58;100.00;101708.56;2520824;23;20172;-67
2023/08/15 00:31:52;;;;;;;13.07;7.50;;;;;;;20.51;100.00;101708.13;2520730;23;20152;-67
2023/08/15 00:32:52;;;;;;;15.33;7.93;;;;;;;20.53;100.00;101708.47;2520417;23;20151;-68
2023/08/15 00:33:53;;;;;;;14.63;8.17;;;;;;;20.57;100.00;101712.66;2521030;23;20234;-68
2023/08/15 00:34:53;;;;;;;14.10;9.13;;;;;;;20.65;100.00;101707.47;2520853;23;20151;-68
2023/08/15 00:35:54;;;;;;;14.80;8.77;;;;;;;20.65;100.00;101715.91;2519879;23;20569;-68
2023/08/15 00:36:54;;;;;;;11.93;9.00;;;;;;;20.67;100.00;101705.72;2520420;23;20527;-68
2023/08/15 00:37:55;;;;;;;16.07;7.93;;;;;;;20.71;100.00;101719.63;2520281;23;20234;-68
2023/08/15 00:38:55;;;;;;;14.20;7.90;;;;;;;20.74;100.00;101708.22;2520320;23;20183;-68
2023/08/15 00:39:55;;;;;;;12.53;7.57;;;;;;;20.78;100.00;101716.50;2520339;23;20234;-68
2023/08/15 00:40:56;;;;;;;13.27;6.83;;;;;;;20.79;100.00;101710.38;2520750;23;20594;-68
2023/08/15 00:41:56;;;;;;;11.00;6.83;;;;;;;20.83;100.00;101710.22;2520978;23;20696;-67
2023/08/15 00:42:57;;;;;;;10.83;6.67;;;;;;;20.85;100.00;101710.50;2520277;23;20162;-68
2023/08/15 00:43:58;;;;;;;12.03;6.90;;;;;;;20.85;100.00;101710.50;2520834;23;20218;-68
2023/08/15 00:44:58;;;;;;;12.10;6.30;;;;;;;20.86;100.00;101709.25;2520832;23;20155;-67
2023/08/15 00:46:01;;;;;;;11.37;7.17;;;;;;;20.85;100.00;101728.19;2520351;23;20391;-68
2023/08/15 00:47:02;;;;;;;9.93;6.50;;;;;;;20.25;100.00;101622.53;2520266;23;20155;-68
2023/08/15 00:48:02;;;;;;;14.23;6.67;;;;;;;20.71;100.00;101686.63;2520650;23;20395;-68
2023/08/15 00:49:03;;;;;;;12.13;6.30;;;;;;;20.71;100.00;101689.44;2520018;23;20551;-68
2023/08/15 00:50:07;;;;;;;15.07;6.13;;;;;;;20.24;100.00;101621.75;2519762;23;20162;-68
2023/08/15 00:51:08;;;;;;;13.83;6.23;;;;;;;20.08;100.00;101590.38;2520610;23;20386;-68
2023/08/15 00:52:11;;;;;;;11.33;5.80;;;;;;;20.80;100.00;101703.50;2520161;23;20712;-68
2023/08/15 00:53:12;;;;;;;10.87;6.43;;;;;;;20.82;100.00;101694.56;2519955;23;20866;-68
2023/08/15 00:54:13;;;;;;;11.73;5.80;;;;;;;20.81;100.00;101699.41;2520703;23;20405;-68
2023/08/15 00:55:14;;;;;;;9.43;5.70;;;;;;;20.67;100.00;101673.97;2520784;23;20147;-68
2023/08/15 00:56:16;;;;;;;7.60;4.83;;;;;;;20.80;100.00;101705.53;2507314;23;20391;-68
2023/08/15 00:57:17;;;;;;;9.23;5.20;;;;;;;20.74;100.00;101727.16;2507595;23;20595;-68
2023/08/15 00:58:17;;;;;;;7.97;4.67;;;;;;;20.03;100.00;101596.63;2520769;23;20393;-68
2023/08/15 00:59:18;;;;;;;6.43;4.87;;;;;;;20.77;100.00;101704.44;2520029;23;20437;-68
2023/08/15 01:00:19;;;;;;;7.23;4.67;;;;;;;20.79;100.00;101698.31;2520381;23;20291;-68
2023/08/15 01:01:21;;;;;;;9.00;4.70;;;;;;;20.83;100.00;101694.06;2520707;23;20233;-67
2023/08/15 01:02:22;;;;;;;6.87;4.50;;;;;;;20.81;100.00;101704.25;2520907;23;20236;-68
2023/08/15 01:03:23;;;;;;;7.90;4.70;;;;;;;20.83;100.00;101710.97;2520312;23;20379;-67
2023/08/15 01:04:24;;;;;;;7.83;4.53;;;;;;;20.78;100.00;101702.41;2520452;23;20222;-68
2023/08/15 01:05:25;;;;;;;7.17;5.07;;;;;;;20.82;100.00;101706.59;2520815;23;20375;-68
2023/08/15 01:06:26;;;;;;;11.57;4.90;;;;;;;20.77;100.00;101692.41;2520210;23;20183;-68
2023/08/15 01:07:26;;;;;;;8.97;4.60;;;;;;;20.83;100.00;101693.31;2520003;23;20387;-68
2023/08/15 01:08:26;;;;;;;10.80;4.87;;;;;;;20.80;100.00;101700.66;2520702;23;20152;-68
2023/08/15 01:09:27;;;;;;;6.23;4.77;;;;;;;20.79;100.00;101698.31;2520543;23;20173;-68
2023/08/15 01:10:27;;;;;;;6.47;4.40;;;;;;;20.74;100.00;101699.78;2520020;23;20242;-68
2023/08/15 01:11:35;;;;;;;7.20;4.80;;;;;;;20.72;100.00;101687.41;2520703;23;20151;-68
2023/08/15 01:12:46;;;;;;;6.83;4.47;;;;;;;20.40;100.00;101631.84;2520636;23;20642;-68
2023/08/15 01:14:02;;;;;;;6.27;4.30;;;;;;;20.76;100.00;101694.44;2520400;23;20818;-67
2023/08/15 01:15:09;;;;;;;6.53;4.77;;;;;;;20.77;100.00;101695.22;2520867;23;20379;-68
2023/08/15 01:16:24;;;;;;;7.43;4.47;;;;;;;20.78;100.00;101699.59;2520002;23;20387;-67
2023/08/15 01:17:32;;;;;;;7.30;4.70;;;;;;;20.83;100.00;101696.88;2520175;23;20427;-68
2023/08/15 01:18:44;;;;;;;6.83;4.40;;;;;;;20.74;100.00;101682.06;2519983;23;20371;-68
2023/08/15 01:19:48;;;;;;;8.10;4.23;;;;;;;20.85;100.00;101694.38;2520302;23;20371;-68
2023/08/15 01:20:49;;;;;;;7.30;4.33;;;;;;;20.88;100.00;101696.22;2520140;23;20885;-67
2023/08/15 01:21:55;;;;;;;8.17;4.60;;;;;;;20.89;100.00;101691.38;2520758;23;20387;-67
2023/08/15 01:22:59;;;;;;;9.10;4.50;;;;;;;20.90;100.00;101690.94;2520765;23;20889;-68
2023/08/15 01:24:01;;;;;;;6.33;4.07;;;;;;;20.85;100.00;101680.31;2520277;23;20387;-67
2023/08/15 01:25:01;;;;;;;7.43;4.03;;;;;;;20.87;100.00;101679.84;2520273;23;20390;-68
2023/08/15 01:26:02;;;;;;;9.77;5.10;;;;;;;20.57;100.00;101624.59;2520006;23;20418;-68
2023/08/15 01:27:02;;;;;;;8.83;4.60;;;;;;;20.82;100.00;101661.53;2520137;23;20176;-68
2023/08/15 01:28:03;;;;;;;10.17;4.63;;;;;;;21.03;100.00;101690.72;2520695;23;20155;-68
2023/08/15 01:29:04;;;;;;;9.20;4.70;;;;;;;21.05;100.00;101691.81;2520712;23;20147;-68
2023/08/15 01:30:05;;;;;;;7.70;4.73;;;;;;;21.09;100.00;101691.63;2520425;23;20580;-68
2023/08/15 01:31:11;;;;;;;9.80;4.67;;;;;;;21.11;100.00;101694.72;2520011;23;20155;-68
2023/08/15 01:32:33;;;;;;;11.87;4.83;;;;;;;21.13;100.00;101683.78;2520540;23;20951;-68
2023/08/15 01:33:41;;;;;;;8.50;5.03;;;;;;;21.03;100.00;101674.56;2519627;23;20861;-68
2023/08/15 01:35:12;;;;;;;9.47;4.53;;;;;;;21.13;100.00;101681.72;2520608;23;20386;-67
2023/08/15 01:36:18;;;;;;;8.80;4.63;;;;;;;21.00;100.00;101675.56;2507124;23;20426;-68
2023/08/15 01:37:26;;;;;;;7.53;4.47;;;;;;;21.14;100.00;101686.09;2508206;23;20388;-67
2023/08/15 01:38:47;;;;;;;9.23;4.47;;;;;;;21.11;100.00;101687.06;2520231;23;20371;-68
2023/08/15 01:39:50;;;;;;;8.13;4.43;;;;;;;21.11;100.00;101683.44;2520149;23;20383;-68
2023/08/15 01:40:53;;;;;;;9.07;4.90;;;;;;;21.12;100.00;101685.00;2520417;23;20441;-68
2023/08/15 01:41:55;;;;;;;8.37;4.63;;;;;;;21.08;100.00;101688.00;2520537;23;20383;-67
2023/08/15 01:42:58;;;;;;;7.37;4.50;;;;;;;21.04;100.00;101673.31;2520520;23;20379;-68
2023/08/15 01:44:00;;;;;;;11.27;4.33;;;;;;;20.75;100.00;101621.66;2520581;23;20150;-68
2023/08/15 01:45:02;;;;;;;7.50;4.40;;;;;;;21.11;100.00;101675.78;2520502;23;20446;-67
2023/08/15 01:46:03;;;;;;;10.47;4.93;;;;;;;21.09;100.00;101683.94;2520114;23;20186;-68
2023/08/15 01:47:04;;;;;;;15.13;5.17;;;;;;;20.68;100.00;101619.19;2520052;23;20151;-68
2023/08/15 01:48:05;;;;;;;22.73;6.97;;;;;;;20.46;100.00;101573.66;2519960;23;20174;-68
2023/08/15 01:49:05;;;;;;;22.60;6.47;;;;;;;21.14;100.00;101680.44;2520594;23;20147;-68
2023/08/15 01:50:06;;;;;;;16.97;5.87;;;;;;;21.16;100.00;101674.34;2520199;23;20183;-68
2023/08/15 01:51:08;;;;;;;12.57;5.13;;;;;;;21.16;100.00;101682.78;2520321;23;20159;-68
2023/08/15 01:52:08;;;;;;;8.83;4.60;;;;;;;21.13;100.00;101673.25;2520022;23;20379;-68
2023/08/15 01:53:09;;;;;;;6.00;4.10;;;;;;;21.14;100.00;101679.69;2520607;23;20473;-68
2023/08/15 01:54:09;;;;;;;5.50;4.23;;;;;;;21.13;100.00;101678.91;2520056;23;20158;-68
2023/08/15 01:55:10;;;;;;;7.13;4.90;;;;;;;21.09;100.00;101674.72;2520362;23;20143;-68
2023/08/15 01:56:13;;;;;;;7.93;4.40;;;;;;;21.07;100.00;101674.38;2520078;23;20162;-68
2023/08/15 01:57:13;;;;;;;7.13;4.50;;;;;;;21.05;100.00;101672.06;2519376;23;20478;-67
2023/08/15 01:58:13;;;;;;;8.47;4.60;;;;;;;21.02;100.00;101678.66;2520597;23;20406;-68
2023/08/15 01:59:14;;;;;;;5.60;3.97;;;;;;;20.59;100.00;101610.78;2520292;23;20276;-67
2023/08/15 02:00:14;;;;;;;5.93;4.30;;;;;;;21.00;100.00;101675.56;2520199;23;20216;-68
2023/08/15 02:01:15;;;;;;;8.27;4.47;;;;;;;20.94;100.00;101671.81;2520425;23;20155;-68
2023/08/15 02:02:15;;;;;;;6.17;4.20;;;;;;;20.87;100.00;101674.97;2519495;23;20151;-68
2023/08/15 02:03:16;;;;;;;7.13;4.63;;;;;;;20.86;100.00;101670.59;2520679;23;20183;-68
2023/08/15 02:04:16;;;;;;;5.40;4.33;;;;;;;20.83;100.00;101679.97;2520347;23;20151;-68
2023/08/15 02:05:17;;;;;;;6.50;4.33;;;;;;;20.82;100.00;101680.47;2507813;23;20207;-68
2023/08/15 02:06:17;;;;;;;8.40;4.47;;;;;;;20.76;100.00;101668.28;2507356;23;20171;-68
2023/08/15 02:07:17;;;;;;;6.17;4.10;;;;;;;20.79;100.00;101667.34;2519851;23;20215;-67
2023/08/15 02:08:18;;;;;;;10.47;4.40;;;;;;;20.75;100.00;101675.97;2520351;23;20450;-68
2023/08/15 02:09:18;;;;;;;8.50;4.40;;;;;;;20.75;100.00;101675.19;2520785;23;20206;-67
2023/08/15 02:10:19;;;;;;;7.57;4.80;;;;;;;19.29;100.00;101450.31;2520310;23;20202;-67
2023/08/15 02:11:19;;;;;;;10.77;4.97;;;;;;;20.71;100.00;101677.38;2520382;23;20158;-68
2023/08/15 02:12:19;;;;;;;8.77;4.40;;;;;;;20.67;100.00;101688.06;2520044;23;20171;-67
2023/08/15 02:13:20;;;;;;;8.50;4.77;;;;;;;20.64;100.00;101667.25;2520021;23;20407;-68
2023/08/15 02:14:20;;;;;;;10.83;4.70;;;;;;;20.59;100.00;101673.56;2520439;23;20230;-67
2023/08/15 02:15:21;;;;;;;6.10;4.63;;;;;;;20.56;100.00;101670.88;2520276;23;20147;-68
2023/08/15 02:16:21;;;;;;;5.83;4.37;;;;;;;20.54;100.00;101670.59;2519096;23;20159;-68
2023/08/15 02:17:22;;;;;;;7.17;4.43;;;;;;;20.52;100.00;101675.94;2520026;23;20155;-68
2023/08/15 02:18:26;;;;;;;6.40;4.23;;;;;;;20.50;100.00;101667.16;2520454;23;20147;-68
2023/08/15 02:19:26;;;;;;;6.90;4.50;;;;;;;20.47;100.00;101668.88;2520732;23;20189;-68
2023/08/15 02:20:27;;;;;;;5.23;4.03;;;;;;;20.45;100.00;101677.03;2519878;23;20418;-68
2023/08/15 02:21:27;;;;;;;6.80;4.60;;;;;;;20.42;100.00;101671.59;2520645;23;20147;-68
2023/08/15 02:22:28;;;;;;;6.83;4.20;;;;;;;19.78;100.00;101577.31;2520331;23;20214;-68
2023/08/15 02:23:28;;;;;;;8.47;4.60;;;;;;;20.41;100.00;101676.44;2520042;23;20509;-68
2023/08/15 02:24:29;;;;;;;9.47;4.47;;;;;;;20.20;100.00;101643.66;2520528;23;20584;-67
2023/08/15 02:25:29;;;;;;;6.70;4.20;;;;;;;19.50;100.00;101533.66;2520274;23;20226;-68
2023/08/15 02:26:30;;;;;;;7.13;4.07;;;;;;;20.37;100.00;101680.66;2519782;23;20390;-68
2023/08/15 02:27:30;;;;;;;7.43;4.17;;;;;;;20.02;100.00;101624.00;2520276;23;20182;-68
2023/08/15 02:28:31;;;;;;;6.33;4.27;;;;;;;20.29;100.00;101671.00;2520266;23;20147;-68
2023/08/15 02:29:31;;;;;;;6.77;4.23;;;;;;;20.30;100.00;101673.34;2520302;23;20167;-68
2023/08/15 02:30:37;;;;;;;7.90;4.30;;;;;;;20.31;100.00;101680.53;2519086;23;20151;-68
2023/08/15 02:31:42;;;;;;;4.93;4.20;;;;;;;20.30;100.00;101684.59;2520454;23;20146;-68
2023/08/15 02:32:43;;;;;;;9.33;5.07;;;;;;;20.32;100.00;101684.91;2520381;23;20462;-67
2023/08/15 02:33:44;;;;;;;11.80;5.23;;;;;;;20.30;100.00;101687.41;2519533;23;20383;-68
2023/08/15 02:34:44;;;;;;;15.47;5.40;;;;;;;19.89;100.00;101626.22;2520066;23;20621;-68
2023/08/15 02:35:44;;;;;;;14.77;5.10;;;;;;;20.07;100.00;101647.91;2506918;23;20164;-68
2023/08/15 02:36:48;;;;;;;7.97;4.83;;;;;;;20.30;100.00;101693.03;2507736;23;20164;-68
2023/08/15 02:37:48;;;;;;;9.97;4.57;;;;;;;20.31;100.00;101694.59;2520302;23;20618;-68
2023/08/15 02:38:49;;;;;;;8.63;4.37;;;;;;;20.25;100.00;101676.78;2520217;23;20779;-67
2023/08/15 02:39:49;;;;;;;8.37;4.60;;;;;;;20.31;100.00;101688.19;2520008;23;20671;-68
2023/08/15 02:40:50;;;;;;;10.23;4.67;;;;;;;20.27;100.00;101696.03;2520507;23;20157;-68
2023/08/15 02:41:50;;;;;;;9.60;4.70;;;;;;;20.23;100.00;101693.38;2520442;23;20249;-67
2023/08/15 02:42:50;;;;;;;8.80;4.47;;;;;;;20.25;100.00;101701.34;2520608;23;20155;-67
2023/08/15 02:43:51;;;;;;;6.13;4.30;;;;;;;20.25;100.00;101692.88;2520067;23;20265;-68
2023/08/15 02:44:51;;;;;;;8.33;4.77;;;;;;;19.83;100.00;101638.56;2519834;23;20170;-67
2023/08/15 02:45:52;;;;;;;5.87;4.30;;;;;;;20.23;100.00;101693.38;2519427;23;20710;-67
2023/08/15 02:46:52;;;;;;;6.07;4.20;;;;;;;20.23;100.00;101695.41;2520013;23;20186;-68
2023/08/15 02:47:52;;;;;;;5.40;4.40;;;;;;;20.19;100.00;101701.22;2520265;23;20158;-68
2023/08/15 02:48:53;;;;;;;7.43;4.60;;;;;;;20.11;100.00;101691.50;2520482;23;20154;-68
2023/08/15 02:49:53;;;;;;;7.80;4.67;;;;;;;20.16;100.00;101696.50;2519960;23;20158;-68
2023/08/15 02:50:54;;;;;;;6.33;4.40;;;;;;;20.11;100.00;101685.88;2520492;23;20185;-67
2023/08/15 02:51:54;;;;;;;6.93;4.20;;;;;;;20.16;100.00;101704.19;2520323;23;20162;-68
2023/08/15 02:52:55;;;;;;;5.50;4.17;;;;;;;20.18;100.00;101696.84;2520485;23;20612;-68
2023/08/15 02:53:55;;;;;;;7.30;4.40;;;;;;;20.16;100.00;101704.19;2520487;23;20155;-68
2023/08/15 02:54:55;;;;;;;6.63;4.10;;;;;;;20.16;100.00;101702.13;2519378;23;20277;-68
2023/08/15 02:55:56;;;;;;;5.10;4.17;;;;;;;20.17;100.00;101700.13;2519900;23;20166;-68
2023/08/15 02:56:56;;;;;;;7.13;4.20;;;;;;;20.14;100.00;101701.84;2519605;23;20259;-67
2023/08/15 02:57:57;;;;;;;6.33;4.20;;;;;;;20.15;100.00;101691.34;2520279;23;20158;-68
2023/08/15 02:58:57;;;;;;;5.80;4.33;;;;;;;20.18;100.00;101702.47;2519914;23;20258;-68
2023/08/15 02:59:58;;;;;;;7.17;4.23;;;;;;;20.20;100.00;101701.97;2520021;23;20591;-67
2023/08/15 03:00:58;;;;;;;6.53;4.30;;;;;;;20.20;100.00;101701.97;2520443;23;20613;-68
2023/08/15 03:01:58;;;;;;;5.77;4.17;;;;;;;20.19;100.00;101698.41;2507712;23;20196;-67
2023/08/15 03:02:59;;;;;;;5.80;4.43;;;;;;;20.20;100.00;101704.78;2507852;23;20156;-68
2023/08/15 03:03:59;;;;;;;8.17;4.40;;;;;;;20.22;100.00;101696.66;2520427;23;20211;-67
2023/08/15 03:05:00;;;;;;;9.67;4.63;;;;;;;20.18;100.00;101698.84;2519797;23;20189;-67
2023/08/15 03:06:01;;;;;;;5.73;4.53;;;;;;;20.22;100.00;101705.88;2519845;23;20155;-67
2023/08/15 03:07:01;;;;;;;7.47;4.00;;;;;;;20.20;100.00;101708.41;2519604;23;20162;-68
2023/08/15 03:08:02;;;;;;;7.03;4.23;;;;;;;20.20;100.00;101708.41;2520243;23;20453;-68
2023/08/15 03:09:02;;;;;;;10.40;4.90;;;;;;;19.91;100.00;101660.25;2520343;23;20622;-68
2023/08/15 03:10:03;;;;;;;11.60;4.70;;;;;;;20.20;100.00;101702.75;2520313;23;20270;-67
2023/08/15 03:11:04;;;;;;;12.80;5.20;;;;;;;20.21;100.00;101715.56;2520484;23;20151;-68
2023/08/15 03:12:04;;;;;;;12.57;5.30;;;;;;;19.78;100.00;101645.63;2520196;23;20166;-68
2023/08/15 03:13:05;;;;;;;13.33;5.03;;;;;;;20.22;100.00;101719.94;2520003;23;20234;-68
2023/08/15 03:14:05;;;;;;;12.37;5.33;;;;;;;19.85;100.00;101667.78;2520363;23;20159;-68
2023/08/15 03:15:06;;;;;;;13.10;4.30;;;;;;;20.20;100.00;101728.09;2520112;23;20159;-68
2023/08/15 03:16:06;;;;;;;8.17;4.93;;;;;;;20.20;100.00;101724.47;2519374;23;20151;-68
2023/08/15 03:17:07;;;;;;;10.60;5.10;;;;;;;20.10;100.00;101720.91;2519422;23;20165;-67
2023/08/15 03:18:08;;;;;;;6.83;4.57;;;;;;;20.11;100.00;101722.47;2520404;23;20151;-68
2023/08/15 03:19:08;;;;;;;11.20;4.30;;;;;;;20.16;100.00;101733.09;2520297;23;20179;-68
2023/08/15 03:20:09;;;;;;;11.00;5.20;;;;;;;20.14;100.00;101732.00;2519999;23;20590;-68
2023/08/15 03:21:09;;;;;;;14.20;5.87;;;;;;;20.13;100.00;101734.06;2520378;23;20158;-68
2023/08/15 03:22:10;;;;;;;11.73;4.60;;;;;;;20.11;100.00;101735.78;2520286;23;20171;-68
2023/08/15 03:23:11;;;;;;;13.77;5.00;;;;;;;20.11;100.00;101733.72;2520494;23;20234;-68
2023/08/15 03:24:11;;;;;;;9.27;4.77;;;;;;;20.08;100.00;101731.09;2520471;23;20155;-67
2023/08/15 03:25:12;;;;;;;8.77;4.97;;;;;;;20.09;100.00;101730.63;2520352;23;20228;-68
2023/08/15 03:26:12;;;;;;;8.17;4.70;;;;;;;20.07;100.00;101741.53;2519227;23;20162;-67
2023/08/15 03:27:13;;;;;;;9.33;4.33;;;;;;;19.17;100.00;101602.97;2519549;23;20609;-67
2023/08/15 03:28:13;;;;;;;8.03;4.30;;;;;;;19.96;100.00;101732.00;2519665;23;20151;-68
2023/08/15 03:29:14;;;;;;;8.17;4.57;;;;;;;20.00;100.00;101741.09;2520481;23;20498;-67
2023/08/15 03:30:14;;;;;;;8.47;4.70;;;;;;;19.96;100.00;101744.03;2519914;23;20497;-68
2023/08/15 03:31:14;;;;;;;6.07;4.77;;;;;;;19.96;100.00;101744.03;2520405;23;20535;-67
2023/08/15 03:32:15;;;;;;;6.10;4.37;;;;;;;19.91;100.00;101741.84;2520266;23;20151;-68
2023/08/15 03:33:16;;;;;;;8.03;4.47;;;;;;;19.90;100.00;101742.34;2520399;23;20148;-68
2023/08/15 03:34:16;;;;;;;5.97;4.90;;;;;;;19.74;100.00;101745.44;2519879;23;20154;-68
2023/08/15 03:35:17;;;;;;;9.60;4.63;;;;;;;19.72;100.00;101751.56;2520608;23;20414;-68
2023/08/15 03:36:18;;;;;;;8.23;4.57;;;;;;;19.06;100.00;101664.47;2506520;23;20155;-68
2023/08/15 03:37:18;;;;;;;7.30;4.60;;;;;;;19.57;100.00;101736.56;2506533;23;20151;-68
2023/08/15 03:38:20;;;;;;;7.43;5.10;;;;;;;19.63;100.00;101753.56;2520254;23;20155;-68
2023/08/15 03:39:21;;;;;;;9.13;4.77;;;;;;;19.28;100.00;101699.66;2520349;23;20254;-68
2023/08/15 03:40:21;;;;;;;7.73;5.00;;;;;;;19.45;100.00;101737.47;2519934;23;20394;-68
2023/08/15 03:41:21;;;;;;;10.73;4.80;;;;;;;19.53;100.00;101755.59;2520453;23;20234;-68
2023/08/15 03:42:22;;;;;;;14.07;5.27;;;;;;;19.51;100.00;101758.09;2520004;23;20152;-68
2023/08/15 03:43:22;;;;;;;8.70;5.00;;;;;;;19.51;100.00;101760.13;2521164;23;20154;-68
2023/08/15 03:44:23;;;;;;;15.47;6.30;;;;;;;19.52;100.00;101759.66;2521370;23;20206;-68
2023/08/15 03:45:23;;;;;;;8.33;5.27;;;;;;;18.68;100.00;101628.31;2521193;23;20560;-68
2023/08/15 03:46:24;;;;;;;9.97;5.30;;;;;;;19.46;100.00;101758.72;2520396;23;20207;-68
2023/08/15 03:47:24;;;;;;;8.60;5.37;;;;;;;19.48;100.00;101761.03;2519761;23;20171;-68
2023/08/15 03:48:25;;;;;;;15.57;6.10;;;;;;;19.46;100.00;101777.63;2520853;23;20222;-68
2023/08/15 03:49:25;;;;;;;10.67;6.27;;;;;;;19.44;100.00;101764.00;2521207;23;20147;-68
2023/08/15 03:50:25;;;;;;;21.03;6.10;;;;;;;19.40;100.00;101757.00;2520589;23;20154;-67
2023/08/15 03:51:26;;;;;;;10.87;5.63;;;;;;;19.43;100.00;101768.06;2521007;23;20175;-68
2023/08/15 03:52:26;;;;;;;14.10;6.23;;;;;;;19.46;100.00;101767.16;2521050;23;20158;-67
2023/08/15 03:53:27;;;;;;;13.17;6.37;;;;;;;19.47;100.00;101765.91;2521191;23;20504;-68
2023/08/15 03:54:28;;;;;;;11.80;6.20;;;;;;;19.47;100.00;101771.53;2520512;23;20199;-68
2023/08/15 03:55:29;;;;;;;11.50;5.77;;;;;;;19.47;100.00;101767.91;2521306;23;20418;-68
2023/08/15 03:56:30;;;;;;;12.17;6.13;;;;;;;19.45;100.00;101765.56;2519715;23;20147;-68
2023/08/15 03:57:30;;;;;;;14.03;6.97;;;;;;;19.01;100.00;101707.22;2519693;23;20388;-68
2023/08/15 03:58:30;;;;;;;16.73;7.00;;;;;;;19.32;100.00;101755.72;2520296;23;20148;-67
2023/08/15 03:59:31;;;;;;;13.03;6.70;;;;;;;19.08;100.00;101730.19;2521293;23;20265;-68
2023/08/15 04:00:31;;;;;;;10.77;6.40;;;;;;;19.42;100.00;101760.91;2520576;23;20161;-67
2023/08/15 04:01:32;;;;;;;15.93;7.07;;;;;;;19.44;100.00;101763.25;2521352;23;20313;-67
2023/08/15 04:02:33;;;;;;;13.60;6.50;;;;;;;19.35;100.00;101761.19;2520741;23;20154;-67
2023/08/15 04:03:33;;;;;;;14.57;6.63;;;;;;;19.31;100.00;101759.78;2521046;23;20386;-68
2023/08/15 04:04:34;;;;;;;16.90;7.57;;;;;;;19.31;100.00;101760.56;2520820;23;20618;-68
2023/08/15 04:05:34;;;;;;;23.10;8.00;;;;;;;18.81;100.00;101689.97;2521005;23;20245;-68
2023/08/15 04:06:35;;;;;;;17.90;7.57;;;;;;;19.32;100.00;101758.53;2520191;23;20165;-68
2023/08/15 04:07:35;;;;;;;18.67;7.40;;;;;;;19.34;100.00;101764.47;2520260;23;20157;-68
2023/08/15 04:08:35;;;;;;;20.10;7.13;;;;;;;19.17;100.00;101749.09;2519987;23;20151;-68
2023/08/15 04:09:36;;;;;;;15.20;7.00;;;;;;;19.21;100.00;101755.34;2521112;23;20160;-68
2023/08/15 04:10:39;;;;;;;11.63;6.40;;;;;;;19.27;100.00;101765.56;2519815;23;20517;-68
2023/08/15 04:11:39;;;;;;;12.37;6.77;;;;;;;19.29;100.00;101763.03;2521041;23;20602;-68
2023/08/15 04:12:40;;;;;;;9.80;5.83;;;;;;;19.31;100.00;101771.00;2520731;23;20825;-68
2023/08/15 04:13:41;;;;;;;9.80;5.53;;;;;;;19.31;100.00;101759.78;2521108;23;20512;-68
2023/08/15 04:14:41;;;;;;;7.27;5.43;;;;;;;19.36;100.00;101770.41;2507974;23;20614;-68
2023/08/15 04:15:42;;;;;;;10.63;6.10;;;;;;;19.36;100.00;101761.97;2508093;23;20473;-68
2023/08/15 04:16:42;;;;;;;10.03;6.60;;;;;;;19.17;100.00;101726.59;2520564;23;20229;-68
2023/08/15 04:17:42;;;;;;;18.57;6.40;;;;;;;19.27;100.00;101747.88;2520586;23;20155;-68
2023/08/15 04:18:43;;;;;;;17.43;6.60;;;;;;;19.30;100.00;101744.16;2519478;23;20162;-68
2023/08/15 04:19:43;;;;;;;13.50;6.33;;;;;;;19.23;100.00;101730.38;2520666;23;20189;-68
2023/08/15 04:20:44;;;;;;;13.23;6.07;;;;;;;19.48;100.00;101772.28;2520837;23;20167;-68
2023/08/15 04:21:45;;;;;;;13.13;6.33;;;;;;;19.50;100.00;101773.38;2521033;23;20162;-68
2023/08/15 04:22:45;;;;;;;16.67;6.50;;;;;;;19.52;100.00;101775.75;2520955;23;20584;-68
2023/08/15 04:23:45;;;;;;;20.30;6.83;;;;;;;19.54;100.00;101767.63;2520942;23;20158;-68
2023/08/15 04:24:46;;;;;;;14.20;6.50;;;;;;;19.57;100.00;101772.31;2520305;23;20476;-68
2023/08/15 04:25:46;;;;;;;13.40;6.37;;;;;;;19.61;100.00;101778.56;2520571;23;20160;-68
2023/08/15 04:26:46;;;;;;;14.73;6.70;;;;;;;19.64;100.00;101775.59;2520669;23;20159;-67
2023/08/15 04:27:47;;;;;;;13.07;7.07;;;;;;;19.67;100.00;101771.06;2520512;23;20209;-67
2023/08/15 04:28:47;;;;;;;11.40;6.00;;;;;;;19.69;100.00;101772.16;2520319;23;20246;-68
2023/08/15 04:29:48;;;;;;;12.93;6.97;;;;;;;19.72;100.00;101773.25;2520222;23;20155;-68
2023/08/15 04:30:48;;;;;;;12.33;6.57;;;;;;;19.71;100.00;101772.47;2521097;23;20162;-68
2023/08/15 04:31:48;;;;;;;14.60;6.23;;;;;;;19.77;100.00;101772.66;2520875;23;20167;-67
2023/08/15 04:32:49;;;;;;;10.20;6.13;;;;;;;19.79;100.00;101778.56;2520758;23;20163;-68
2023/08/15 04:33:49;;;;;;;3.03;2.73;;;;;;;20.08;100.00;101774.09;2521275;23;20151;-60
2023/08/15 04:34:50;;;;;;;10.80;5.07;;;;;;;21.23;100.00;101778.31;2520923;23;20161;-59
2023/08/15 04:35:50;;;;;;;9.13;5.37;;;;;;;21.60;100.00;101797.31;2520903;23;20157;-60
2023/08/15 04:36:51;;;;;;;11.10;4.93;;;;;;;21.51;100.00;101777.66;2521010;23;20147;-60
2023/08/15 04:37:51;;;;;;;10.37;4.90;;;;;;;22.05;100.00;101805.47;2520670;23;20173;-60
2023/08/15 04:38:52;;;;;;;8.87;3.97;;;;;;;22.57;100.00;101792.63;2520964;23;20228;-60
2023/08/15 04:39:52;;;;;;;6.30;3.57;;;;;;;;;;2520137;23;20185;-60
2023/08/15 04:40:52;;;;;;;8.07;3.90;;;;;;;23.41;100.00;101791.44;2521201;23;20151;-60